| time (UTC) | temp F | wind direction | speed knots | gust knots | rain 1hr in | rain 24hr in | rain mn in | humidity % | barometer mb |
| 20260505084007 | 67 | 176 | 0.0 | 1.7 | 0.00 | 0.06 | 0.00 | 57 | 1019.4 |
| 20260505083506 | 67 | 170 | 0.0 | 2.6 | 0.00 | 0.06 | 0.00 | 56 | 1019.3 |
| 20260505082507 | 67 | 159 | 0.9 | 1.7 | 0.00 | 0.06 | 0.00 | 56 | 1019.2 |
| 20260505082006 | 67 | 187 | 0.9 | 1.7 | 0.00 | 0.06 | 0.00 | 56 | 1019.2 |
| 20260505081006 | 67 | 166 | 1.7 | 2.6 | 0.00 | 0.06 | 0.00 | 56 | 1019.0 |
| 20260505075006 | 67 | 178 | 2.6 | 4.3 | 0.00 | 0.06 | 0.00 | 55 | 1018.6 |
| 20260505074507 | 67 | 175 | 2.6 | 6.1 | 0.00 | 0.06 | 0.00 | 54 | 1018.5 |
| 20260505074006 | 67 | 166 | 2.6 | 5.2 | 0.00 | 0.06 | 0.00 | 54 | 1018.4 |
| 20260505073506 | 67 | 171 | 2.6 | 7.0 | 0.00 | 0.06 | 0.00 | 53 | 1018.3 |
| 20260505073006 | 68 | 174 | 4.3 | 6.1 | 0.00 | 0.06 | 0.00 | 53 | 1018.3 |
| 20260505072506 | 68 | 175 | 2.6 | 5.2 | 0.00 | 0.06 | 0.00 | 54 | 1018.3 |
| 20260505071006 | 68 | 177 | 0.9 | 2.6 | 0.00 | 0.06 | 0.00 | 54 | 1018.1 |
| 20260505064506 | 69 | 173 | 4.3 | 7.8 | 0.00 | 0.06 | 0.00 | 53 | 1017.6 |
| 20260505063506 | 70 | 180 | 2.6 | 6.1 | 0.00 | 0.06 | 0.00 | 52 | 1017.5 |
| 20260505063006 | 70 | 177 | 1.7 | 7.0 | 0.00 | 0.06 | 0.00 | 52 | 1017.4 |
| 20260505062507 | 70 | 169 | 2.6 | 7.0 | 0.00 | 0.06 | 0.00 | 52 | 1017.4 |
| 20260505062006 | 70 | 170 | 3.5 | 6.1 | 0.00 | 0.06 | 0.00 | 53 | 1017.3 |
| 20260505061507 | 70 | 171 | 2.6 | 6.1 | 0.00 | 0.06 | 0.00 | 53 | 1017.3 |
| 20260505061006 | 71 | 169 | 4.3 | 7.0 | 0.00 | 0.06 | 0.00 | 53 | 1017.3 |
| 20260505060506 | 72 | 173 | 1.7 | 5.2 | 0.00 | 0.06 | 0.00 | 52 | 1017.3 |
| 20260505053505 | 76 | 91 | 0.9 | 2.6 | 0.00 | 0.06 | 0.00 | 38 | 1017.1 |
| 20260505053006 | 76 | 310 | 0.0 | 0.9 | 0.00 | 0.06 | 0.00 | 37 | 1017.1 |
| 20260505052507 | 75 | 282 | 0.0 | 1.7 | 0.00 | 0.06 | 0.00 | 38 | 1017.1 |
| 20260505052006 | 75 | 170 | 0.0 | 0.0 | 0.00 | 0.06 | 0.00 | 39 | 1017.1 |
| 20260505051506 | 76 | 170 | 0.9 | 4.3 | 0.00 | 0.06 | 0.00 | 39 | 1017.1 |
| 20260505051006 | 76 | 300 | 1.7 | 5.2 | 0.00 | 0.06 | 0.00 | 39 | 1017.0 |
| 20260505050506 | 77 | 262 | 0.9 | 1.7 | 0.00 | 0.06 | 0.00 | 37 | 1016.9 |
| 20260505041505 | 73 | 173 | 0.9 | 2.6 | 0.00 | 0.06 | 0.00 | 42 | 1016.6 |
| 20260505041006 | 73 | 107 | 0.9 | 2.6 | 0.00 | 0.06 | 0.00 | 44 | 1016.7 |
| 20260505040507 | 73 | 123 | 0.9 | 2.6 | 0.00 | 0.06 | 0.00 | 44 | 1016.6 |
| 20260505035507 | 73 | 186 | 0.9 | 2.6 | 0.00 | 0.06 | 0.00 | 43 | 1016.7 |
| 20260505035006 | 73 | 101 | 0.9 | 1.7 | 0.00 | 0.06 | 0.00 | 44 | 1016.7 |
| 20260505034505 | 73 | 124 | 0.0 | 1.7 | 0.00 | 0.06 | 0.00 | 44 | 1016.7 |
| 20260505034006 | 74 | 217 | 0.9 | 2.6 | 0.00 | 0.06 | 0.00 | 44 | 1016.9 |
| 20260505033005 | 74 | 198 | 0.9 | 2.6 | 0.00 | 0.06 | 0.00 | 43 | 1016.9 |
| 20260505031507 | 72 | 333 | 0.9 | 4.3 | 0.00 | 0.06 | 0.00 | 45 | 1017.0 |
| 20260505024505 | 72 | 131 | 0.9 | 2.6 | 0.00 | 0.06 | 0.00 | 47 | 1017.2 |
| 20260505024006 | 72 | 172 | 0.9 | 2.6 | 0.00 | 0.07 | 0.00 | 47 | 1017.3 |
| 20260505022006 | 71 | 183 | 0.9 | 2.6 | 0.00 | 0.08 | 0.00 | 48 | 1017.4 |
| 20260505021005 | 70 | 334 | 2.6 | 7.0 | 0.00 | 0.08 | 0.00 | 49 | 1017.4 |
| 20260505020506 | 70 | 207 | 0.9 | 2.6 | 0.00 | 0.08 | 0.00 | 49 | 1017.4 |
| 20260505014505 | 69 | 140 | 0.9 | 7.0 | 0.00 | 0.09 | 0.00 | 51 | 1017.6 |
| 20260505014005 | 69 | 343 | 2.6 | 6.1 | 0.00 | 0.09 | 0.00 | 52 | 1017.7 |
| 20260505013005 | 68 | 149 | 0.9 | 4.3 | 0.00 | 0.09 | 0.00 | 52 | 1017.7 |
| 20260505012005 | 68 | 159 | 0.0 | 2.6 | 0.00 | 0.09 | 0.00 | 54 | 1017.9 |
| 20260505011005 | 69 | 134 | 0.9 | 5.2 | 0.00 | 0.09 | 0.00 | 54 | 1018.1 |
| 20260505005007 | 68 | 155 | 1.7 | 2.6 | 0.00 | 0.09 | 0.00 | 54 | 1018.4 |
| 20260505004505 | 68 | 118 | 0.9 | 2.6 | 0.00 | 0.09 | 0.00 | 54 | 1018.5 |
| 20260505004005 | 68 | 160 | 1.7 | 5.2 | 0.00 | 0.09 | 0.00 | 55 | 1018.6 |
| 20260505003505 | 68 | 146 | 1.7 | 4.3 | 0.00 | 0.09 | 0.00 | 54 | 1018.5 |
| 20260505002506 | 67 | 99 | 0.9 | 2.6 | 0.00 | 0.09 | 0.00 | 54 | 1018.6 |
| 20260505001005 | 67 | 227 | 1.7 | 5.2 | 0.00 | 0.09 | 0.00 | 55 | 1018.6 |
| 20260505000505 | 68 | 191 | 0.0 | 2.6 | 0.00 | 0.09 | 0.00 | 53 | 1018.6 |
| 20260505000004 | 67 | 182 | 0.9 | 2.6 | 0.00 | 0.09 | 0.00 | 54 | 1018.5 |
| 20260504235505 | 67 | 119 | 1.7 | 6.1 | 0.00 | 0.09 | 0.00 | 55 | 1018.4 |
| 20260504235006 | 67 | 167 | 1.7 | 8.7 | 0.00 | 0.09 | 0.00 | 54 | 1018.6 |
| 20260504234505 | 67 | 181 | 1.7 | 2.6 | 0.00 | 0.09 | 0.00 | 54 | 1018.6 |
| 20260504234005 | 67 | 265 | 1.7 | 4.3 | 0.00 | 0.09 | 0.00 | 55 | 1018.6 |
| 20260504233505 | 67 | 167 | 2.6 | 6.1 | 0.00 | 0.09 | 0.00 | 55 | 1018.6 |
| 20260504232505 | 66 | 158 | 1.7 | 5.2 | 0.00 | 0.09 | 0.00 | 56 | 1018.6 |
| 20260504232005 | 66 | 169 | 1.7 | 5.2 | 0.00 | 0.09 | 0.00 | 56 | 1018.7 |
| 20260504231505 | 66 | 173 | 1.7 | 5.2 | 0.00 | 0.09 | 0.00 | 56 | 1018.7 |
| 20260504230506 | 67 | 183 | 2.6 | 7.8 | 0.00 | 0.09 | 0.00 | 56 | 1018.7 |
| 20260504225005 | 67 | 235 | 0.9 | 2.6 | 0.00 | 0.09 | 0.00 | 54 | 1018.8 |
| 20260504223005 | 67 | 151 | 0.9 | 1.7 | 0.00 | 0.09 | 0.00 | 55 | 1018.6 |
| 20260504215005 | 64 | 233 | 0.9 | 2.6 | 0.00 | 0.10 | 0.00 | 62 | 1018.6 |
| 20260504214506 | 64 | 159 | 0.9 | 2.6 | 0.00 | 0.10 | 0.00 | 62 | 1018.5 |
| 20260504213005 | 64 | 160 | 0.9 | 1.7 | 0.00 | 0.10 | 0.00 | 66 | 1018.1 |
| 20260504212506 | 63 | 174 | 0.9 | 1.7 | 0.00 | 0.10 | 0.00 | 67 | 1018.0 |
| 20260504204004 | 60 | 173 | 0.9 | 2.6 | 0.00 | 0.10 | 0.00 | 72 | 1017.4 |
| 20260504203506 | 60 | 125 | 0.9 | 1.7 | 0.00 | 0.10 | 0.00 | 71 | 1017.4 |
| 20260504203005 | 60 | 150 | 0.9 | 2.6 | 0.00 | 0.10 | 0.00 | 71 | 1017.2 |
| 20260504202505 | 60 | 178 | 0.0 | 0.9 | 0.00 | 0.10 | 0.00 | 71 | 1017.2 |
| 20260504195005 | 60 | 179 | 0.9 | 2.6 | 0.00 | 0.10 | 0.00 | 74 | 1016.9 |
| 20260504194005 | 60 | 195 | 0.0 | 1.7 | 0.00 | 0.10 | 0.00 | 73 | 1016.9 |
| 20260504193005 | 60 | 151 | 0.0 | 1.7 | 0.00 | 0.10 | 0.00 | 72 | 1016.7 |
| 20260504190504 | 61 | 179 | 0.9 | 1.7 | 0.00 | 0.10 | 0.00 | 72 | 1016.6 |
| 20260504185505 | 61 | 162 | 0.9 | 2.6 | 0.00 | 0.10 | 0.00 | 72 | 1016.5 |
| 20260504184005 | 61 | 153 | 0.9 | 2.6 | 0.00 | 0.10 | 0.00 | 72 | 1016.2 |
| 20260504180505 | 62 | 142 | 0.9 | 2.6 | 0.00 | 0.10 | 0.00 | 69 | 1016.0 |
| 20260504180005 | 62 | 173 | 1.7 | 2.6 | 0.00 | 0.10 | 0.00 | 70 | 1015.9 |
| 20260504175504 | 62 | 153 | 0.9 | 1.7 | 0.00 | 0.10 | 0.00 | 70 | 1015.9 |
| 20260504175005 | 62 | 142 | 0.9 | 2.6 | 0.00 | 0.10 | 0.00 | 70 | 1015.9 |
| 20260504173504 | 63 | 172 | 0.9 | 2.6 | 0.00 | 0.10 | 0.00 | 68 | 1016.0 |
| 20260504172005 | 63 | 201 | 1.7 | 2.6 | 0.00 | 0.10 | 0.00 | 68 | 1016.1 |
| 20260504171005 | 63 | 169 | 0.9 | 1.7 | 0.00 | 0.10 | 0.00 | 68 | 1016.1 |
| 20260504150506 | 65 | 151 | 0.0 | 1.7 | 0.00 | 0.10 | 0.00 | 74 | 1016.4 |
| 20260504141007 | 65 | 204 | 0.9 | 2.6 | 0.05 | 0.10 | 0.00 | 79 | 1016.1 |
| 20260504130506 | 68 | 146 | 0.0 | 1.7 | 0.00 | 0.12 | 0.05 | 76 | 1016.1 |
| 20260504100506 | 70 | 301 | 4.3 | 7.8 | 0.01 | 0.17 | 0.05 | 70 | 1015.1 |